NBL107 AGGH-AYPY
Flight info
| Callsign | NBL107 |
|---|---|
| Flight time | 1h 57m |
| Altitude | 34000 |
| Route | AGGH/06 N0469F340 DCT HN B598 PY DCT AYPY/14L |
| Aircraft | B738/M-SDE2E3FGHIRWXY/LB1 |
Departure
| Time | 2026-04-29 19:13 |
|---|---|
| Airport | Honiara International Airport (AGGH) |
Arrival
| Time | 2026-04-29 21:10 |
|---|---|
| Airport | Port Moresby Jacksons International Airport (AYPY) |
| Time | Latitude | Longitude | Altitude | Speed | Heading |
|---|---|---|---|---|---|
| 2026-04-29 19:05 | -9.43018 | 160.04898 | 24 ft | 4 kts | 126° |
| 2026-04-29 19:06 | -9.43021 | 160.04917 | 24 ft | 3 kts | 90° |
| 2026-04-29 19:06 | -9.43026 | 160.04928 | 25 ft | 1 kts | 167° |
| 2026-04-29 19:06 | -9.43050 | 160.04868 | 26 ft | 20 kts | 258° |
| 2026-04-29 19:07 | -9.43175 | 160.04540 | 30 ft | 0 kts | 68° |
| 2026-04-29 19:12 | -9.43174 | 160.04545 | 60 ft | 6 kts | 68° |
| 2026-04-29 19:12 | -9.43140 | 160.04630 | 32 ft | 42 kts | 68° |
| 2026-04-29 19:13 | -9.42821 | 160.05437 | 30 ft | 139 kts | 68° |
| 2026-04-29 19:13 | -9.42407 | 160.06518 | 220 ft | 180 kts | 68° |
| 2026-04-29 19:13 | -9.41889 | 160.07649 | 1076 ft | 175 kts | 56° |
| 2026-04-29 19:13 | -9.40891 | 160.08366 | 1723 ft | 193 kts | 12° |
| 2026-04-29 19:14 | -9.39493 | 160.08193 | 2144 ft | 217 kts | 334° |
| 2026-04-29 19:14 | -9.38361 | 160.07120 | 2347 ft | 239 kts | 305° |
| 2026-04-29 19:14 | -9.37608 | 160.05560 | 2638 ft | 257 kts | 283° |
| 2026-04-29 19:14 | -9.37586 | 160.03733 | 3126 ft | 265 kts | 259° |
| 2026-04-29 19:15 | -9.37911 | 160.01877 | 3824 ft | 269 kts | 257° |
| 2026-04-29 19:15 | -9.38265 | 160.00002 | 4549 ft | 274 kts | 257° |
| 2026-04-29 19:15 | -9.38621 | 159.98093 | 5238 ft | 278 kts | 258° |
| 2026-04-29 19:15 | -9.38971 | 159.96156 | 5962 ft | 281 kts | 258° |
| 2026-04-29 19:16 | -9.39314 | 159.94199 | 6668 ft | 284 kts | 258° |
| 2026-04-29 19:16 | -9.39653 | 159.92224 | 7338 ft | 286 kts | 259° |
| 2026-04-29 19:16 | -9.39989 | 159.90226 | 8017 ft | 289 kts | 259° |
| 2026-04-29 19:16 | -9.40325 | 159.88207 | 8696 ft | 292 kts | 259° |
| 2026-04-29 19:17 | -9.40661 | 159.86168 | 9386 ft | 295 kts | 260° |
| 2026-04-29 19:17 | -9.40998 | 159.84107 | 10058 ft | 298 kts | 260° |
| 2026-04-29 19:17 | -9.41379 | 159.81994 | 10380 ft | 316 kts | 258° |
| 2026-04-29 19:17 | -9.41820 | 159.79735 | 10535 ft | 337 kts | 258° |
| 2026-04-29 19:18 | -9.42277 | 159.77330 | 10687 ft | 357 kts | 259° |
| 2026-04-29 19:18 | -9.42581 | 159.75664 | 10780 ft | 369 kts | 259° |
| 2026-04-29 19:18 | -9.43187 | 159.72162 | 11035 ft | 390 kts | 260° |
| 2026-04-29 19:18 | -9.43637 | 159.69435 | 11476 ft | 395 kts | 261° |
| 2026-04-29 19:19 | -9.44079 | 159.66687 | 12043 ft | 397 kts | 261° |
| 2026-04-29 19:19 | -9.44518 | 159.63920 | 12593 ft | 399 kts | 261° |
| 2026-04-29 19:19 | -9.44955 | 159.61140 | 13117 ft | 402 kts | 261° |
| 2026-04-29 19:19 | -9.45395 | 159.58329 | 13610 ft | 405 kts | 261° |
| 2026-04-29 19:20 | -9.45837 | 159.55503 | 14077 ft | 407 kts | 261° |
| 2026-04-29 19:20 | -9.46281 | 159.52660 | 14529 ft | 409 kts | 261° |
| 2026-04-29 19:20 | -9.46729 | 159.49798 | 14970 ft | 412 kts | 261° |
| 2026-04-29 19:20 | -9.47178 | 159.46923 | 15394 ft | 415 kts | 261° |
| 2026-04-29 19:21 | -9.47630 | 159.44031 | 15818 ft | 417 kts | 261° |
| 2026-04-29 19:21 | -9.48079 | 159.41158 | 16239 ft | 419 kts | 261° |
| 2026-04-29 19:21 | -9.48536 | 159.38230 | 16655 ft | 422 kts | 261° |
| 2026-04-29 19:21 | -9.48995 | 159.35285 | 17055 ft | 424 kts | 261° |
| 2026-04-29 19:22 | -9.49456 | 159.32329 | 17451 ft | 427 kts | 261° |
| 2026-04-29 19:22 | -9.49921 | 159.29349 | 17837 ft | 429 kts | 261° |
| 2026-04-29 19:22 | -9.50387 | 159.26355 | 18209 ft | 431 kts | 261° |
| 2026-04-29 19:22 | -9.50856 | 159.23342 | 18542 ft | 433 kts | 261° |
| 2026-04-29 19:23 | -9.51327 | 159.20315 | 18889 ft | 435 kts | 261° |
| 2026-04-29 19:23 | -9.51798 | 159.17284 | 19197 ft | 437 kts | 261° |
| 2026-04-29 19:23 | -9.52272 | 159.14234 | 19522 ft | 439 kts | 261° |
| 2026-04-29 19:23 | -9.52748 | 159.11172 | 19812 ft | 441 kts | 262° |
| 2026-04-29 19:24 | -9.53226 | 159.08092 | 20157 ft | 442 kts | 262° |
| 2026-04-29 19:24 | -9.53705 | 159.05009 | 20495 ft | 443 kts | 261° |
| 2026-04-29 19:24 | -9.54163 | 159.01915 | 20745 ft | 446 kts | 263° |
| 2026-04-29 19:24 | -9.54528 | 158.98782 | 21013 ft | 448 kts | 264° |
| 2026-04-29 19:25 | -9.54838 | 158.95647 | 21396 ft | 447 kts | 265° |
| 2026-04-29 19:25 | -9.55132 | 158.92511 | 21679 ft | 449 kts | 265° |
| 2026-04-29 19:25 | -9.55426 | 158.89388 | 21911 ft | 452 kts | 265° |
| 2026-04-29 19:25 | -9.55732 | 158.86219 | 22196 ft | 452 kts | 265° |
| 2026-04-29 19:26 | -9.56045 | 158.83046 | 22561 ft | 452 kts | 265° |
| 2026-04-29 19:26 | -9.56363 | 158.79877 | 22828 ft | 453 kts | 265° |
| 2026-04-29 19:26 | -9.56686 | 158.76683 | 23025 ft | 456 kts | 265° |
| 2026-04-29 19:26 | -9.57011 | 158.73484 | 23277 ft | 457 kts | 265° |
| 2026-04-29 19:27 | -9.57337 | 158.70277 | 23526 ft | 458 kts | 265° |
| 2026-04-29 19:27 | -9.57663 | 158.67064 | 23749 ft | 459 kts | 265° |
| 2026-04-29 19:27 | -9.57989 | 158.63843 | 23966 ft | 459 kts | 265° |
| 2026-04-29 19:27 | -9.58314 | 158.60629 | 24179 ft | 460 kts | 265° |
| 2026-04-29 19:28 | -9.58529 | 158.58494 | 24319 ft | 461 kts | 264° |
| 2026-04-29 19:28 | -9.58965 | 158.54175 | 24611 ft | 461 kts | 264° |
| 2026-04-29 19:28 | -9.59180 | 158.52035 | 24734 ft | 462 kts | 264° |
| 2026-04-29 19:28 | -9.59613 | 158.47731 | 24962 ft | 463 kts | 264° |
| 2026-04-29 19:29 | -9.59833 | 158.45540 | 25126 ft | 463 kts | 265° |
| 2026-04-29 19:29 | -9.60264 | 158.41252 | 25435 ft | 463 kts | 265° |
| 2026-04-29 19:29 | -9.60484 | 158.39058 | 25519 ft | 465 kts | 264° |
| 2026-04-29 19:29 | -9.60812 | 158.35781 | 25694 ft | 465 kts | 264° |
| 2026-04-29 19:30 | -9.61139 | 158.32523 | 25970 ft | 464 kts | 264° |
| 2026-04-29 19:30 | -9.61461 | 158.29309 | 26122 ft | 465 kts | 264° |
| 2026-04-29 19:30 | -9.61787 | 158.26042 | 26220 ft | 468 kts | 265° |
| 2026-04-29 19:30 | -9.62115 | 158.22760 | 26465 ft | 467 kts | 264° |
| 2026-04-29 19:31 | -9.62442 | 158.19488 | 26709 ft | 466 kts | 265° |
| 2026-04-29 19:31 | -9.62767 | 158.16229 | 26895 ft | 467 kts | 264° |
| 2026-04-29 19:31 | -9.63094 | 158.12946 | 27070 ft | 467 kts | 264° |
| 2026-04-29 19:31 | -9.63420 | 158.09673 | 27347 ft | 465 kts | 264° |
| 2026-04-29 19:32 | -9.63744 | 158.06417 | 27560 ft | 465 kts | 264° |
| 2026-04-29 19:32 | -9.64069 | 158.03143 | 27660 ft | 468 kts | 264° |
| 2026-04-29 19:32 | -9.64395 | 157.99858 | 27890 ft | 467 kts | 264° |
| 2026-04-29 19:32 | -9.64719 | 157.96590 | 28074 ft | 468 kts | 264° |
| 2026-04-29 19:33 | -9.65044 | 157.93304 | 28221 ft | 469 kts | 264° |
| 2026-04-29 19:33 | -9.65367 | 157.90043 | 28416 ft | 469 kts | 264° |
| 2026-04-29 19:33 | -9.65692 | 157.86750 | 28607 ft | 469 kts | 264° |
| 2026-04-29 19:33 | -9.66017 | 157.83462 | 28742 ft | 471 kts | 264° |
| 2026-04-29 19:34 | -9.66344 | 157.80143 | 28911 ft | 471 kts | 264° |
| 2026-04-29 19:34 | -9.66668 | 157.76856 | 29325 ft | 466 kts | 264° |
| 2026-04-29 19:34 | -9.66990 | 157.73589 | 29558 ft | 466 kts | 264° |
| 2026-04-29 19:35 | -9.67635 | 157.67031 | 29861 ft | 468 kts | 264° |
| 2026-04-29 19:35 | -9.67956 | 157.63759 | 30173 ft | 465 kts | 264° |
| 2026-04-29 19:35 | -9.68276 | 157.60496 | 30335 ft | 466 kts | 264° |
| 2026-04-29 19:35 | -9.68592 | 157.57264 | 30456 ft | 467 kts | 264° |
| 2026-04-29 19:36 | -9.68912 | 157.53996 | 30748 ft | 464 kts | 264° |
| 2026-04-29 19:36 | -9.69230 | 157.50742 | 30965 ft | 463 kts | 264° |
| 2026-04-29 19:36 | -9.69552 | 157.47443 | 31044 ft | 466 kts | 264° |
| 2026-04-29 19:36 | -9.69867 | 157.44217 | 31270 ft | 465 kts | 265° |
| 2026-04-29 19:37 | -9.70184 | 157.40971 | 31550 ft | 463 kts | 265° |
| 2026-04-29 19:37 | -9.70398 | 157.38776 | 31660 ft | 463 kts | 264° |
| 2026-04-29 19:37 | -9.70817 | 157.34465 | 31859 ft | 464 kts | 265° |
| 2026-04-29 19:37 | -9.71137 | 157.31173 | 32158 ft | 461 kts | 265° |
| 2026-04-29 19:38 | -9.71448 | 157.27972 | 32344 ft | 462 kts | 265° |
| 2026-04-29 19:38 | -9.72079 | 157.21460 | 32691 ft | 463 kts | 265° |
| 2026-04-29 19:38 | -9.72393 | 157.18220 | 32929 ft | 462 kts | 265° |
| 2026-04-29 19:39 | -9.72707 | 157.14973 | 33106 ft | 462 kts | 265° |
| 2026-04-29 19:39 | -9.73020 | 157.11724 | 33264 ft | 463 kts | 265° |
| 2026-04-29 19:39 | -9.73332 | 157.08488 | 33554 ft | 461 kts | 265° |
| 2026-04-29 19:39 | -9.73645 | 157.05253 | 33708 ft | 462 kts | 265° |
| 2026-04-29 19:40 | -9.73957 | 157.02015 | 33815 ft | 459 kts | 266° |
| 2026-04-29 19:40 | -9.74575 | 156.95619 | 33886 ft | 456 kts | 266° |
| 2026-04-29 19:41 | -9.75189 | 156.89195 | 33907 ft | 460 kts | 264° |
| 2026-04-29 19:41 | -9.75809 | 156.82720 | 33897 ft | 464 kts | 264° |
| 2026-04-29 19:42 | -9.76432 | 156.76205 | 33897 ft | 463 kts | 265° |
| 2026-04-29 19:42 | -9.77049 | 156.69743 | 33884 ft | 458 kts | 264° |
| 2026-04-29 19:43 | -9.77657 | 156.63359 | 33899 ft | 457 kts | 264° |
| 2026-04-29 19:43 | -9.78267 | 156.56946 | 33895 ft | 457 kts | 264° |
| 2026-04-29 19:44 | -9.78875 | 156.50533 | 33896 ft | 457 kts | 265° |
| 2026-04-29 19:44 | -9.79481 | 156.44133 | 33895 ft | 457 kts | 265° |
| 2026-04-29 19:45 | -9.80086 | 156.37723 | 33888 ft | 457 kts | 264° |
| 2026-04-29 19:45 | -9.80692 | 156.31299 | 33896 ft | 457 kts | 265° |
| 2026-04-29 19:46 | -9.81295 | 156.24885 | 33894 ft | 457 kts | 265° |
| 2026-04-29 19:46 | -9.81898 | 156.18470 | 33903 ft | 457 kts | 265° |
| 2026-04-29 19:47 | -9.82500 | 156.12042 | 33889 ft | 458 kts | 265° |
| 2026-04-29 19:47 | -9.83101 | 156.05615 | 33900 ft | 457 kts | 265° |
| 2026-04-29 19:48 | -9.83696 | 155.99241 | 33891 ft | 457 kts | 265° |
| 2026-04-29 19:48 | -9.84294 | 155.92818 | 33894 ft | 457 kts | 265° |
| 2026-04-29 19:49 | -9.84890 | 155.86408 | 33897 ft | 457 kts | 265° |
| 2026-04-29 19:49 | -9.85484 | 155.80005 | 33892 ft | 456 kts | 265° |
| 2026-04-29 19:50 | -9.86077 | 155.73593 | 33900 ft | 456 kts | 265° |
| 2026-04-29 19:50 | -9.86668 | 155.67196 | 33892 ft | 456 kts | 265° |
| 2026-04-29 19:51 | -9.87258 | 155.60790 | 33905 ft | 456 kts | 265° |
| 2026-04-29 19:51 | -9.87847 | 155.54394 | 33893 ft | 456 kts | 265° |
| 2026-04-29 19:52 | -9.88434 | 155.47997 | 33901 ft | 456 kts | 265° |
| 2026-04-29 19:52 | -9.89020 | 155.41594 | 33900 ft | 456 kts | 265° |
| 2026-04-29 19:53 | -9.89607 | 155.35178 | 33901 ft | 457 kts | 265° |
| 2026-04-29 19:53 | -9.90192 | 155.28766 | 33905 ft | 457 kts | 265° |
| 2026-04-29 19:54 | -9.91068 | 155.19137 | 33904 ft | 457 kts | 265° |
| 2026-04-29 19:54 | -9.91647 | 155.12752 | 33903 ft | 457 kts | 265° |
| 2026-04-29 19:55 | -9.92232 | 155.06289 | 33903 ft | 457 kts | 265° |
| 2026-04-29 19:55 | -9.92809 | 154.99901 | 33899 ft | 457 kts | 265° |
| 2026-04-29 19:56 | -9.93393 | 154.93468 | 33905 ft | 457 kts | 265° |
| 2026-04-29 19:56 | -9.93976 | 154.87047 | 33898 ft | 457 kts | 265° |
| 2026-04-29 19:57 | -9.94460 | 154.81706 | 33908 ft | 457 kts | 265° |
| 2026-04-29 19:57 | -9.95139 | 154.74196 | 33902 ft | 457 kts | 265° |
| 2026-04-29 19:58 | -9.95718 | 154.67777 | 33905 ft | 457 kts | 265° |
| 2026-04-29 19:58 | -9.96296 | 154.61354 | 33903 ft | 458 kts | 265° |
| 2026-04-29 19:59 | -9.96873 | 154.54918 | 33907 ft | 458 kts | 265° |
| 2026-04-29 19:59 | -9.97446 | 154.48517 | 33910 ft | 458 kts | 266° |
| 2026-04-29 20:00 | -9.98022 | 154.42079 | 33905 ft | 459 kts | 265° |
| 2026-04-29 20:00 | -9.98597 | 154.35624 | 33913 ft | 459 kts | 266° |
| 2026-04-29 20:01 | -9.99171 | 154.29174 | 33901 ft | 460 kts | 266° |
| 2026-04-29 20:01 | -9.99745 | 154.22708 | 33912 ft | 460 kts | 265° |
| 2026-04-29 20:02 | -10.00318 | 154.16245 | 33907 ft | 460 kts | 265° |
| 2026-04-29 20:02 | -10.00793 | 154.10868 | 33913 ft | 460 kts | 266° |
| 2026-04-29 20:03 | -10.01461 | 154.03301 | 33912 ft | 461 kts | 266° |
| 2026-04-29 20:03 | -10.02027 | 153.96864 | 33910 ft | 461 kts | 266° |
| 2026-04-29 20:04 | -10.02597 | 153.90369 | 33916 ft | 461 kts | 266° |
| 2026-04-29 20:04 | -10.03164 | 153.83896 | 33906 ft | 461 kts | 266° |
| 2026-04-29 20:05 | -10.03730 | 153.77423 | 33919 ft | 461 kts | 266° |
| 2026-04-29 20:05 | -10.04295 | 153.70948 | 33908 ft | 461 kts | 266° |
| 2026-04-29 20:06 | -10.04860 | 153.64464 | 33912 ft | 461 kts | 266° |
| 2026-04-29 20:06 | -10.05417 | 153.58021 | 33914 ft | 461 kts | 266° |
| 2026-04-29 20:07 | -10.05982 | 153.51506 | 33913 ft | 461 kts | 266° |
| 2026-04-29 20:07 | -10.06540 | 153.45063 | 33919 ft | 461 kts | 266° |
| 2026-04-29 20:08 | -10.07009 | 153.39634 | 33912 ft | 461 kts | 266° |
| 2026-04-29 20:08 | -10.07660 | 153.32103 | 33921 ft | 461 kts | 266° |
| 2026-04-29 20:09 | -10.08218 | 153.25630 | 33907 ft | 461 kts | 266° |
| 2026-04-29 20:09 | -10.08774 | 153.19159 | 33917 ft | 460 kts | 266° |
| 2026-04-29 20:10 | -10.09332 | 153.12677 | 33912 ft | 460 kts | 266° |
| 2026-04-29 20:10 | -10.09887 | 153.06209 | 33919 ft | 460 kts | 266° |
| 2026-04-29 20:11 | -10.10440 | 152.99731 | 33921 ft | 460 kts | 266° |
| 2026-04-29 20:11 | -10.10991 | 152.93273 | 33912 ft | 459 kts | 266° |
| 2026-04-29 20:12 | -10.11540 | 152.86812 | 33918 ft | 458 kts | 266° |
| 2026-04-29 20:12 | -10.12086 | 152.80373 | 33909 ft | 458 kts | 266° |
| 2026-04-29 20:13 | -10.12539 | 152.75023 | 33923 ft | 457 kts | 266° |
| 2026-04-29 20:13 | -10.13171 | 152.67550 | 33914 ft | 457 kts | 266° |
| 2026-04-29 20:14 | -10.13712 | 152.61129 | 33920 ft | 457 kts | 266° |
| 2026-04-29 20:14 | -10.14165 | 152.55744 | 33914 ft | 457 kts | 266° |
| 2026-04-29 20:15 | -10.14792 | 152.48261 | 33914 ft | 457 kts | 266° |
| 2026-04-29 20:15 | -10.15239 | 152.42920 | 33920 ft | 458 kts | 266° |
| 2026-04-29 20:16 | -10.15778 | 152.36470 | 33920 ft | 459 kts | 266° |
| 2026-04-29 20:16 | -10.16309 | 152.30008 | 33923 ft | 459 kts | 266° |
| 2026-04-29 20:17 | -10.16832 | 152.23548 | 33922 ft | 460 kts | 266° |
| 2026-04-29 20:17 | -10.17356 | 152.17069 | 33926 ft | 460 kts | 266° |
| 2026-04-29 20:18 | -10.17879 | 152.10596 | 33922 ft | 461 kts | 266° |
| 2026-04-29 20:18 | -10.18402 | 152.04119 | 33928 ft | 461 kts | 266° |
| 2026-04-29 20:19 | -10.18921 | 151.97674 | 33921 ft | 461 kts | 266° |
| 2026-04-29 20:19 | -10.19444 | 151.91155 | 33927 ft | 460 kts | 266° |
| 2026-04-29 20:20 | -10.19961 | 151.84712 | 33924 ft | 460 kts | 266° |
| 2026-04-29 20:20 | -10.20478 | 151.78239 | 33925 ft | 460 kts | 266° |
| 2026-04-29 20:21 | -10.20993 | 151.71769 | 33928 ft | 460 kts | 266° |
| 2026-04-29 20:21 | -10.21509 | 151.65281 | 33924 ft | 460 kts | 266° |
| 2026-04-29 20:22 | -10.22022 | 151.58817 | 33931 ft | 459 kts | 266° |
| 2026-04-29 20:22 | -10.22533 | 151.52358 | 33926 ft | 459 kts | 266° |
| 2026-04-29 20:23 | -10.23043 | 151.45891 | 33932 ft | 459 kts | 266° |
| 2026-04-29 20:23 | -10.23551 | 151.39438 | 33937 ft | 459 kts | 266° |
| 2026-04-29 20:24 | -10.24057 | 151.32987 | 33938 ft | 459 kts | 266° |
| 2026-04-29 20:24 | -10.24562 | 151.26538 | 33936 ft | 458 kts | 266° |
| 2026-04-29 20:25 | -10.25063 | 151.20131 | 33938 ft | 458 kts | 266° |
| 2026-04-29 20:25 | -10.25566 | 151.13676 | 33942 ft | 458 kts | 266° |
| 2026-04-29 20:26 | -10.26065 | 151.07238 | 33948 ft | 457 kts | 266° |
| 2026-04-29 20:26 | -10.26564 | 151.00808 | 33933 ft | 457 kts | 266° |
| 2026-04-29 20:27 | -10.26982 | 150.95412 | 33941 ft | 456 kts | 266° |
| 2026-04-29 20:27 | -10.27556 | 150.87966 | 33942 ft | 455 kts | 266° |
| 2026-04-29 20:28 | -10.28049 | 150.81553 | 33942 ft | 455 kts | 266° |
| 2026-04-29 20:28 | -10.28540 | 150.75155 | 33942 ft | 455 kts | 266° |
| 2026-04-29 20:29 | -10.29030 | 150.68749 | 33947 ft | 454 kts | 266° |
| 2026-04-29 20:29 | -10.29519 | 150.62336 | 33952 ft | 455 kts | 266° |
| 2026-04-29 20:30 | -10.30006 | 150.55935 | 33948 ft | 455 kts | 266° |
| 2026-04-29 20:30 | -10.30492 | 150.49527 | 33951 ft | 455 kts | 266° |
| 2026-04-29 20:31 | -10.30978 | 150.43119 | 33950 ft | 455 kts | 266° |
| 2026-04-29 20:31 | -10.31460 | 150.36707 | 33958 ft | 456 kts | 267° |
| 2026-04-29 20:32 | -10.31477 | 150.30272 | 33965 ft | 455 kts | 272° |
| 2026-04-29 20:32 | -10.31222 | 150.23891 | 33962 ft | 456 kts | 273° |
| 2026-04-29 20:33 | -10.30973 | 150.17461 | 33960 ft | 456 kts | 272° |
| 2026-04-29 20:33 | -10.30762 | 150.11014 | 33972 ft | 456 kts | 272° |
| 2026-04-29 20:34 | -10.30570 | 150.04569 | 33973 ft | 457 kts | 272° |
| 2026-04-29 20:34 | -10.30380 | 149.98109 | 33970 ft | 457 kts | 272° |
| 2026-04-29 20:35 | -10.30187 | 149.91655 | 33977 ft | 458 kts | 272° |
| 2026-04-29 20:35 | -10.29992 | 149.85185 | 33975 ft | 458 kts | 272° |
| 2026-04-29 20:36 | -10.29795 | 149.78722 | 33980 ft | 458 kts | 272° |
| 2026-04-29 20:36 | -10.29597 | 149.72257 | 33980 ft | 458 kts | 272° |
| 2026-04-29 20:37 | -10.29397 | 149.65784 | 33979 ft | 458 kts | 272° |
| 2026-04-29 20:37 | -10.29198 | 149.59358 | 33984 ft | 458 kts | 272° |
| 2026-04-29 20:38 | -10.28996 | 149.52907 | 33979 ft | 457 kts | 272° |
| 2026-04-29 20:38 | -10.28793 | 149.46451 | 33968 ft | 457 kts | 272° |
| 2026-04-29 20:39 | -10.28590 | 149.40011 | 33970 ft | 456 kts | 272° |
| 2026-04-29 20:39 | -10.28384 | 149.33562 | 33963 ft | 456 kts | 272° |
| 2026-04-29 20:40 | -10.28178 | 149.27130 | 33965 ft | 456 kts | 272° |
| 2026-04-29 20:40 | -10.27971 | 149.20702 | 33965 ft | 456 kts | 272° |
| 2026-04-29 20:41 | -10.27762 | 149.14256 | 33961 ft | 455 kts | 272° |
| 2026-04-29 20:41 | -10.27553 | 149.07833 | 33962 ft | 455 kts | 272° |
| 2026-04-29 20:42 | -10.27342 | 149.01398 | 33962 ft | 456 kts | 272° |
| 2026-04-29 20:42 | -10.27129 | 148.94970 | 33963 ft | 456 kts | 272° |
| 2026-04-29 20:43 | -10.26916 | 148.88539 | 33961 ft | 456 kts | 272° |
| 2026-04-29 20:43 | -10.26702 | 148.82135 | 33962 ft | 456 kts | 272° |
| 2026-04-29 20:44 | -10.26486 | 148.75696 | 33962 ft | 457 kts | 272° |
| 2026-04-29 20:44 | -10.26267 | 148.69242 | 33961 ft | 457 kts | 272° |
| 2026-04-29 20:45 | -10.26158 | 148.66008 | 33537 ft | 464 kts | 272° |
| 2026-04-29 20:45 | -10.26046 | 148.62730 | 32960 ft | 463 kts | 272° |
| 2026-04-29 20:45 | -10.25935 | 148.59461 | 32273 ft | 463 kts | 272° |
| 2026-04-29 20:45 | -10.25823 | 148.56189 | 31595 ft | 464 kts | 272° |
| 2026-04-29 20:46 | -10.25710 | 148.52915 | 31046 ft | 462 kts | 272° |
| 2026-04-29 20:46 | -10.25599 | 148.49673 | 30511 ft | 460 kts | 272° |
| 2026-04-29 20:46 | -10.25487 | 148.46435 | 29990 ft | 457 kts | 272° |
| 2026-04-29 20:46 | -10.25375 | 148.43214 | 29412 ft | 454 kts | 272° |
| 2026-04-29 20:47 | -10.25264 | 148.40018 | 28876 ft | 450 kts | 272° |
| 2026-04-29 20:47 | -10.25154 | 148.36849 | 28362 ft | 447 kts | 272° |
| 2026-04-29 20:47 | -10.25027 | 148.33719 | 27856 ft | 443 kts | 275° |
| 2026-04-29 20:47 | -10.24465 | 148.30662 | 27353 ft | 439 kts | 288° |
| 2026-04-29 20:48 | -10.23336 | 148.27795 | 26760 ft | 437 kts | 297° |
| 2026-04-29 20:48 | -10.21739 | 148.25224 | 26242 ft | 435 kts | 307° |
| 2026-04-29 20:48 | -10.19897 | 148.22808 | 25722 ft | 433 kts | 308° |
| 2026-04-29 20:48 | -10.18038 | 148.20412 | 25243 ft | 430 kts | 308° |
| 2026-04-29 20:49 | -10.16196 | 148.18036 | 24736 ft | 428 kts | 308° |
| 2026-04-29 20:49 | -10.14364 | 148.15656 | 24255 ft | 426 kts | 308° |
| 2026-04-29 20:49 | -10.12547 | 148.13280 | 23772 ft | 425 kts | 308° |
| 2026-04-29 20:49 | -10.10742 | 148.10907 | 23227 ft | 423 kts | 308° |
| 2026-04-29 20:50 | -10.08955 | 148.08551 | 22711 ft | 420 kts | 308° |
| 2026-04-29 20:50 | -10.07178 | 148.06207 | 22220 ft | 417 kts | 308° |
| 2026-04-29 20:50 | -10.05417 | 148.03882 | 21741 ft | 413 kts | 308° |
| 2026-04-29 20:50 | -10.03676 | 148.01585 | 21260 ft | 410 kts | 308° |
| 2026-04-29 20:51 | -10.01944 | 147.99299 | 20806 ft | 406 kts | 308° |
| 2026-04-29 20:51 | -10.00225 | 147.97032 | 20347 ft | 403 kts | 308° |
| 2026-04-29 20:51 | -9.98518 | 147.94781 | 19897 ft | 401 kts | 308° |
| 2026-04-29 20:51 | -9.96823 | 147.92547 | 19425 ft | 398 kts | 308° |
| 2026-04-29 20:52 | -9.95142 | 147.90334 | 18965 ft | 395 kts | 308° |
| 2026-04-29 20:52 | -9.93468 | 147.88127 | 18511 ft | 393 kts | 308° |
| 2026-04-29 20:52 | -9.91799 | 147.85927 | 18008 ft | 391 kts | 308° |
| 2026-04-29 20:52 | -9.90145 | 147.83748 | 17527 ft | 388 kts | 308° |
| 2026-04-29 20:53 | -9.88505 | 147.81587 | 17053 ft | 385 kts | 308° |
| 2026-04-29 20:53 | -9.86878 | 147.79444 | 16597 ft | 382 kts | 308° |
| 2026-04-29 20:53 | -9.85267 | 147.77319 | 16165 ft | 379 kts | 307° |
| 2026-04-29 20:53 | -9.83880 | 147.75097 | 15741 ft | 377 kts | 297° |
| 2026-04-29 20:54 | -9.81793 | 147.70277 | 14939 ft | 371 kts | 294° |
| 2026-04-29 20:54 | -9.80777 | 147.67877 | 14521 ft | 369 kts | 294° |
| 2026-04-29 20:54 | -9.79761 | 147.65492 | 14078 ft | 368 kts | 295° |
| 2026-04-29 20:55 | -9.78742 | 147.63119 | 13639 ft | 367 kts | 295° |
| 2026-04-29 20:55 | -9.77722 | 147.60754 | 13189 ft | 365 kts | 295° |
| 2026-04-29 20:55 | -9.76704 | 147.58406 | 12738 ft | 363 kts | 295° |
| 2026-04-29 20:55 | -9.75691 | 147.56070 | 12292 ft | 360 kts | 295° |
| 2026-04-29 20:56 | -9.74685 | 147.53754 | 11882 ft | 358 kts | 295° |
| 2026-04-29 20:56 | -9.73695 | 147.51477 | 11469 ft | 356 kts | 295° |
| 2026-04-29 20:56 | -9.72699 | 147.49184 | 11050 ft | 355 kts | 295° |
| 2026-04-29 20:56 | -9.71719 | 147.46929 | 10863 ft | 345 kts | 295° |
| 2026-04-29 20:57 | -9.70760 | 147.44722 | 10683 ft | 337 kts | 295° |
| 2026-04-29 20:57 | -9.69827 | 147.42577 | 10527 ft | 328 kts | 295° |
| 2026-04-29 20:57 | -9.68919 | 147.40489 | 10393 ft | 319 kts | 295° |
| 2026-04-29 20:57 | -9.68036 | 147.38459 | 10249 ft | 311 kts | 295° |
| 2026-04-29 20:58 | -9.66985 | 147.36596 | 10090 ft | 300 kts | 316° |
| 2026-04-29 20:58 | -9.65355 | 147.35365 | 9925 ft | 290 kts | 332° |
| 2026-04-29 20:58 | -9.63608 | 147.34333 | 9551 ft | 291 kts | 330° |
| 2026-04-29 20:58 | -9.61886 | 147.33252 | 9239 ft | 290 kts | 329° |
| 2026-04-29 20:59 | -9.60205 | 147.32180 | 8928 ft | 289 kts | 329° |
| 2026-04-29 20:59 | -9.58490 | 147.31126 | 8623 ft | 287 kts | 333° |
| 2026-04-29 20:59 | -9.56718 | 147.30204 | 8331 ft | 286 kts | 335° |
| 2026-04-29 20:59 | -9.54938 | 147.29315 | 8034 ft | 285 kts | 335° |
| 2026-04-29 21:00 | -9.53159 | 147.28441 | 7739 ft | 283 kts | 335° |
| 2026-04-29 21:00 | -9.51382 | 147.27579 | 7444 ft | 282 kts | 335° |
| 2026-04-29 21:00 | -9.49611 | 147.26726 | 7162 ft | 281 kts | 335° |
| 2026-04-29 21:00 | -9.47843 | 147.25878 | 6883 ft | 280 kts | 335° |
| 2026-04-29 21:01 | -9.46083 | 147.25040 | 6605 ft | 279 kts | 335° |
| 2026-04-29 21:01 | -9.44918 | 147.24488 | 6423 ft | 279 kts | 335° |
| 2026-04-29 21:01 | -9.43166 | 147.23662 | 6137 ft | 278 kts | 335° |
| 2026-04-29 21:01 | -9.41415 | 147.22839 | 5838 ft | 277 kts | 335° |
| 2026-04-29 21:02 | -9.39668 | 147.22025 | 5561 ft | 276 kts | 337° |
| 2026-04-29 21:02 | -9.37859 | 147.21401 | 5288 ft | 274 kts | 346° |
| 2026-04-29 21:02 | -9.36013 | 147.20947 | 5043 ft | 269 kts | 347° |
| 2026-04-29 21:02 | -9.34239 | 147.20536 | 4975 ft | 252 kts | 347° |
| 2026-04-29 21:03 | -9.32590 | 147.20147 | 4867 ft | 235 kts | 344° |
| 2026-04-29 21:03 | -9.31103 | 147.19623 | 4782 ft | 218 kts | 339° |
| 2026-04-29 21:03 | -9.29785 | 147.18984 | 4641 ft | 203 kts | 331° |
| 2026-04-29 21:03 | -9.28614 | 147.18288 | 4512 ft | 190 kts | 329° |
| 2026-04-29 21:04 | -9.27495 | 147.17595 | 4181 ft | 187 kts | 328° |
| 2026-04-29 21:04 | -9.26408 | 147.16876 | 3789 ft | 187 kts | 321° |
| 2026-04-29 21:04 | -9.25512 | 147.15935 | 3416 ft | 184 kts | 305° |
| 2026-04-29 21:04 | -9.24941 | 147.14829 | 3361 ft | 177 kts | 289° |
| 2026-04-29 21:05 | -9.24681 | 147.13564 | 3235 ft | 188 kts | 274° |
| 2026-04-29 21:05 | -9.24753 | 147.12262 | 3065 ft | 188 kts | 259° |
| 2026-04-29 21:05 | -9.25161 | 147.11023 | 2960 ft | 183 kts | 243° |
| 2026-04-29 21:05 | -9.26033 | 147.10067 | 2641 ft | 194 kts | 207° |
| 2026-04-29 21:06 | -9.27353 | 147.09768 | 2098 ft | 198 kts | 172° |
| 2026-04-29 21:06 | -9.28488 | 147.10406 | 1936 ft | 183 kts | 127° |
| 2026-04-29 21:06 | -9.29109 | 147.11516 | 2135 ft | 182 kts | 116° |
| 2026-04-29 21:06 | -9.29700 | 147.12687 | 2199 ft | 188 kts | 118° |
| 2026-04-29 21:07 | -9.30463 | 147.13734 | 2348 ft | 180 kts | 138° |
| 2026-04-29 21:07 | -9.31529 | 147.14428 | 2434 ft | 187 kts | 156° |
| 2026-04-29 21:07 | -9.32748 | 147.14915 | 2424 ft | 188 kts | 158° |
| 2026-04-29 21:07 | -9.33906 | 147.15470 | 2510 ft | 175 kts | 148° |
| 2026-04-29 21:08 | -9.34852 | 147.16164 | 2540 ft | 164 kts | 142° |
| 2026-04-29 21:08 | -9.35769 | 147.16851 | 2392 ft | 164 kts | 145° |
| 2026-04-29 21:08 | -9.36727 | 147.17486 | 2141 ft | 164 kts | 147° |
| 2026-04-29 21:08 | -9.37661 | 147.18109 | 1915 ft | 157 kts | 145° |
| 2026-04-29 21:09 | -9.38578 | 147.18708 | 1549 ft | 156 kts | 148° |
| 2026-04-29 21:09 | -9.39497 | 147.19259 | 1135 ft | 154 kts | 150° |
| 2026-04-29 21:09 | -9.40438 | 147.19772 | 780 ft | 153 kts | 150° |
| 2026-04-29 21:09 | -9.41317 | 147.20295 | 508 ft | 143 kts | 148° |
| 2026-04-29 21:10 | -9.42142 | 147.20811 | 341 ft | 136 kts | 148° |
| 2026-04-29 21:10 | -9.42946 | 147.21304 | 167 ft | 135 kts | 148° |
| 2026-04-29 21:10 | -9.43705 | 147.21775 | 107 ft | 113 kts | 149° |
| 2026-04-29 21:10 | -9.44234 | 147.22103 | 116 ft | 43 kts | 148° |
| 2026-04-29 21:11 | -9.44412 | 147.22213 | 115 ft | 22 kts | 149° |
| 2026-04-29 21:11 | -9.44506 | 147.22171 | 116 ft | 20 kts | 240° |
| 2026-04-29 21:11 | -9.44555 | 147.22082 | 118 ft | 13 kts | 240° |
| 2026-04-29 21:11 | -9.44609 | 147.21997 | 123 ft | 18 kts | 237° |
| 2026-04-29 21:12 | -9.44687 | 147.21870 | 122 ft | 19 kts | 239° |
| 2026-04-29 21:12 | -9.44721 | 147.21785 | 123 ft | 5 kts | 251° |
| 2026-04-29 21:12 | -9.44731 | 147.21755 | 122 ft | 5 kts | 249° |
| 2026-04-29 21:12 | -9.44736 | 147.21744 | 124 ft | 0 kts | 244° |